Time,TemperatureF,DewpointF,PressureIn,WindDirection,WindDirectionDegrees,WindSpeedMPH,WindSpeedGustMPH,Humidity,HourlyPrecipIn,Conditions,Clouds,dailyrainin,SoftwareType,DateUTC
2013-04-16 00:00:00,-20.0,-27.3,29.58,NE,52,26.0,26.0,68,0.00,,,0.00,WeatherDisplay:10.37,2013-04-15 12:00:00,
2013-04-16 00:15:00,-20.0,-27.5,29.58,NE,55,26.0,26.0,67,0.00,,,0.00,WeatherDisplay:10.37,2013-04-15 12:15:00,
2013-04-16 00:30:00,-19.9,-27.5,29.59,ENE,57,26.0,26.0,67,0.00,,,0.00,WeatherDisplay:10.37,2013-04-15 12:30:00,
2013-04-16 00:45:00,-20.0,-27.8,29.59,ENE,57,26.0,26.0,66,0.00,,,0.00,WeatherDisplay:10.37,2013-04-15 12:45:00,
2013-04-16 01:00:00,-20.0,-28.2,29.59,ENE,59,23.0,26.0,65,0.00,,,0.00,WeatherDisplay:10.37,2013-04-15 13:00:00,
2013-04-16 01:15:00,-20.9,-29.0,29.60,NE,55,25.0,25.0,65,0.00,,,0.00,WeatherDisplay:10.37,2013-04-15 13:15:00,
2013-04-16 01:30:00,-21.1,-29.2,29.60,ENE,58,25.0,25.0,65,0.00,,,0.00,WeatherDisplay:10.37,2013-04-15 13:30:00,
2013-04-16 01:45:00,-21.0,-29.1,29.60,ENE,60,25.0,25.0,65,0.00,,,0.00,WeatherDisplay:10.37,2013-04-15 13:45:00,
2013-04-16 02:00:00,-21.1,-29.2,29.60,ENE,62,25.0,25.0,65,0.00,,,0.00,WeatherDisplay:10.37,2013-04-15 14:00:00,
2013-04-16 02:15:00,-21.4,-29.4,29.61,ENE,59,23.0,25.0,65,0.00,,,0.00,WeatherDisplay:10.37,2013-04-15 14:15:00,
2013-04-16 02:30:00,-21.6,-29.4,29.61,ENE,60,23.0,23.0,66,0.00,,,0.00,WeatherDisplay:10.37,2013-04-15 14:30:00,
2013-04-16 02:45:00,-22.0,-30.0,29.61,ENE,58,23.0,23.0,65,0.00,CLR,,0.00,WeatherDisplay:10.37,2013-04-15 14:45:00,
2013-04-16 03:00:00,-22.8,-30.3,29.61,ENE,58,23.0,23.0,67,0.00,CLR,,0.00,WeatherDisplay:10.37,2013-04-15 15:00:00,
2013-04-16 03:15:00,-23.4,-30.9,29.62,NE,54,23.0,23.0,67,0.00,,,0.00,WeatherDisplay:10.37,2013-04-15 15:15:00,
2013-04-16 03:30:00,-23.5,-31.0,29.62,NE,50,23.0,23.0,67,0.00,,,0.00,WeatherDisplay:10.37,2013-04-15 15:30:00,
2013-04-16 03:45:00,-24.0,-31.4,29.62,NE,41,22.0,23.0,67,0.00,CLR,,0.00,WeatherDisplay:10.37,2013-04-15 15:45:00,
2013-04-16 04:00:00,-24.7,-32.1,29.62,NE,34,23.0,23.0,67,0.00,,,0.00,WeatherDisplay:10.37,2013-04-15 16:00:00,
2013-04-16 04:15:00,-23.8,-31.5,29.62,NE,38,23.0,23.0,66,0.00,,,0.00,WeatherDisplay:10.37,2013-04-15 16:15:00,
2013-04-16 04:30:00,-23.4,-31.4,29.62,NE,40,23.0,23.0,65,0.00,CLR,,0.00,WeatherDisplay:10.37,2013-04-15 16:30:00,
2013-04-16 04:45:00,-23.1,-31.7,29.62,NE,43,22.0,23.0,63,0.00,CLR,,0.00,WeatherDisplay:10.37,2013-04-15 16:45:00,
2013-04-16 05:00:00,-22.9,-31.5,29.62,NE,44,22.0,22.0,63,0.00,CLR,,0.00,WeatherDisplay:10.37,2013-04-15 17:00:00,
2013-04-16 05:15:00,-24.0,-32.5,29.62,NE,41,23.0,23.0,63,0.00,CLR,,0.00,WeatherDisplay:10.37,2013-04-15 17:15:00,
2013-04-16 05:30:00,-25.1,-33.0,29.62,NE,37,22.0,23.0,65,0.00,CLR,,0.00,WeatherDisplay:10.37,2013-04-15 17:30:00,
2013-04-16 05:45:00,-23.0,-31.3,29.62,NE,34,24.0,24.0,64,0.00,,,0.00,WeatherDisplay:10.37,2013-04-15 17:45:00,
2013-04-16 06:00:00,-22.8,-31.3,29.62,NE,36,23.0,24.0,63,0.00,CLR,,0.00,WeatherDisplay:10.37,2013-04-15 18:00:00,
2013-04-16 06:15:00,-23.2,-32.1,29.62,NE,36,22.0,23.0,62,0.00,CLR,,0.00,WeatherDisplay:10.37,2013-04-15 18:15:00,
2013-04-16 06:30:00,-23.2,-32.4,29.62,NE,37,22.0,22.0,61,0.00,CLR,,0.00,WeatherDisplay:10.37,2013-04-15 18:30:00,
2013-04-16 06:45:00,-23.1,-32.8,29.62,NE,40,22.0,22.0,59,0.00,CLR,,0.00,WeatherDisplay:10.37,2013-04-15 18:45:00,
2013-04-16 07:00:00,-23.3,-33.1,29.61,NE,37,24.0,24.0,59,0.00,,,0.00,WeatherDisplay:10.37,2013-04-15 19:00:00,
2013-04-16 07:15:00,-23.3,-33.0,29.61,NNE,33,25.0,25.0,59,0.00,,,0.00,WeatherDisplay:10.37,2013-04-15 19:15:00,
2013-04-16 07:30:00,-22.9,-32.7,29.61,NNE,32,25.0,25.0,59,0.00,,,0.00,WeatherDisplay:10.37,2013-04-15 19:30:00,
2013-04-16 07:45:00,-22.7,-32.5,29.61,NE,37,24.0,25.0,59,0.00,,,0.00,WeatherDisplay:10.37,2013-04-15 19:45:00,
2013-04-16 08:00:00,-22.8,-32.9,29.62,NE,38,23.0,24.0,58,0.00,,,0.00,WeatherDisplay:10.37,2013-04-15 20:00:00,
2013-04-16 08:15:00,-23.2,-33.6,29.62,NE,40,23.0,23.0,57,0.00,CLR,,0.00,WeatherDisplay:10.37,2013-04-15 20:15:00,
2013-04-16 08:30:00,-23.7,-33.8,29.62,NE,42,22.0,23.0,58,0.00,CLR,,0.00,WeatherDisplay:10.37,2013-04-15 20:30:00,
2013-04-16 08:45:00,-23.9,-33.6,29.62,NE,36,23.0,23.0,59,0.00,CLR,,0.00,WeatherDisplay:10.37,2013-04-15 20:45:00,
2013-04-16 09:00:00,-23.6,-33.9,29.62,NNE,33,23.0,23.0,57,0.00,,,0.00,WeatherDisplay:10.37,2013-04-15 21:00:00,
2013-04-16 09:15:00,-23.5,-34.8,29.62,NE,35,22.0,23.0,54,0.00,CLR,,0.00,WeatherDisplay:10.37,2013-04-15 21:15:00,
2013-04-16 09:30:00,-23.7,-35.1,29.62,NE,37,21.0,22.0,54,0.00,CLR,,0.00,WeatherDisplay:10.37,2013-04-15 21:30:00,
2013-04-16 09:45:00,-23.8,-36.1,29.62,NE,36,21.0,21.0,51,0.00,CLR,,0.00,WeatherDisplay:10.37,2013-04-15 21:45:00,
2013-04-16 10:00:00,-24.1,-36.4,29.62,NE,38,20.0,21.0,51,0.00,CLR,,0.00,WeatherDisplay:10.37,2013-04-15 22:00:00,
2013-04-16 10:15:00,-24.8,-37.4,29.62,NE,40,18.0,20.0,50,0.00,CLR,,0.00,WeatherDisplay:10.37,2013-04-15 22:15:00,
2013-04-16 10:30:00,-25.2,-37.5,29.62,NE,37,18.0,18.0,51,0.00,CLR,,0.00,WeatherDisplay:10.37,2013-04-15 22:30:00,
2013-04-16 10:45:00,-24.0,-37.4,29.62,NE,38,18.0,18.0,48,0.00,CLR,,0.00,WeatherDisplay:10.37,2013-04-15 22:45:00,
2013-04-16 11:00:00,-24.1,-36.8,29.61,NE,35,20.0,20.0,50,0.00,CLR,,0.00,WeatherDisplay:10.37,2013-04-15 23:00:00,
2013-04-16 11:15:00,-23.3,-36.3,29.61,NE,35,18.0,20.0,49,0.00,CLR,,0.00,WeatherDisplay:10.37,2013-04-15 23:15:00,
2013-04-16 11:30:00,-23.1,-36.1,29.61,NE,35,20.0,20.0,49,0.00,CLR,,0.00,WeatherDisplay:10.37,2013-04-15 23:30:00,
2013-04-16 11:45:00,-23.0,-36.0,29.60,NE,36,20.0,20.0,49,0.00,CLR,,0.00,WeatherDisplay:10.37,2013-04-15 23:45:00,
2013-04-16 12:00:00,-23.0,-36.1,29.60,NE,36,20.0,20.0,49,0.00,CLR,,0.00,WeatherDisplay:10.37,2013-04-16 00:00:00,
2013-04-16 12:15:00,-22.8,-36.3,29.60,NNE,32,21.0,21.0,48,0.00,CLR,,0.00,WeatherDisplay:10.37,2013-04-16 00:15:00,
2013-04-16 12:30:00,-22.7,-35.8,29.60,NNE,32,20.0,21.0,49,0.00,CLR,,0.00,WeatherDisplay:10.37,2013-04-16 00:30:00,
2013-04-16 12:45:00,-22.2,-35.0,29.59,NE,34,20.0,20.0,50,0.00,CLR,,0.00,WeatherDisplay:10.37,2013-04-16 00:45:00,
2013-04-16 13:00:00,-22.1,-34.9,29.60,NE,36,18.0,20.0,50,0.00,CLR,,0.00,WeatherDisplay:10.37,2013-04-16 01:00:00,
2013-04-16 13:15:00,-22.3,-34.7,29.60,NE,34,18.0,18.0,51,0.00,CLR,,0.00,WeatherDisplay:10.37,2013-04-16 01:15:00,
2013-04-16 13:30:00,-22.5,-34.9,29.59,NE,35,17.0,18.0,51,0.00,CLR,,0.00,WeatherDisplay:10.37,2013-04-16 01:30:00,
2013-04-16 13:45:00,-23.3,-35.7,29.59,NE,34,17.0,17.0,51,0.00,CLR,,0.00,WeatherDisplay:10.37,2013-04-16 01:45:00,
2013-04-16 14:00:00,-23.4,-35.7,29.59,NNE,32,17.0,17.0,51,0.00,CLR,,0.00,WeatherDisplay:10.37,2013-04-16 02:00:00,
2013-04-16 14:15:00,-23.4,-35.1,29.59,NE,39,15.0,17.0,53,0.00,CLR,,0.00,WeatherDisplay:10.37,2013-04-16 02:15:00,
2013-04-16 14:30:00,-23.4,-35.4,29.59,NE,34,15.0,15.0,52,0.00,CLR,,0.00,WeatherDisplay:10.37,2013-04-16 02:30:00,
2013-04-16 14:45:00,-23.5,-36.2,29.58,NNE,28,16.0,16.0,50,0.00,CLR,,0.00,WeatherDisplay:10.37,2013-04-16 02:45:00,
2013-04-16 15:00:00,-23.2,-36.3,29.58,NE,37,16.0,16.0,49,0.00,CLR,,0.00,WeatherDisplay:10.37,2013-04-16 03:00:00,
2013-04-16 15:15:00,-23.9,-36.9,29.58,NE,38,15.0,16.0,49,0.00,CLR,,0.00,WeatherDisplay:10.37,2013-04-16 03:15:00,
2013-04-16 15:30:00,-24.3,-37.0,29.58,NE,42,16.0,16.0,50,0.00,CLR,,0.00,WeatherDisplay:10.37,2013-04-16 03:30:00,
2013-04-16 15:45:00,-24.9,-37.2,29.58,NE,37,15.0,16.0,51,0.00,CLR,,0.00,WeatherDisplay:10.37,2013-04-16 03:45:00,
2013-04-16 16:00:00,-24.9,-37.2,29.58,NNE,31,17.0,17.0,51,0.00,CLR,,0.00,WeatherDisplay:10.37,2013-04-16 04:00:00,
2013-04-16 16:15:00,-25.0,-37.5,29.57,NNE,32,18.0,18.0,50,0.00,CLR,,0.00,WeatherDisplay:10.37,2013-04-16 04:15:00,
2013-04-16 16:30:00,-24.6,-37.2,29.57,NE,34,17.0,18.0,50,0.00,CLR,,0.00,WeatherDisplay:10.37,2013-04-16 04:30:00,
2013-04-16 16:45:00,-24.9,-36.5,29.57,NE,39,15.0,17.0,53,0.00,CLR,,0.00,WeatherDisplay:10.37,2013-04-16 04:45:00,
2013-04-16 17:00:00,-26.0,-37.2,29.57,NE,37,16.0,16.0,54,0.00,CLR,,0.00,WeatherDisplay:10.37,2013-04-16 05:00:00,
2013-04-16 17:15:00,-25.7,-36.5,29.56,NE,38,16.0,16.0,55,0.00,CLR,,0.00,WeatherDisplay:10.37,2013-04-16 05:15:00,
2013-04-16 17:30:00,-24.4,-36.3,29.56,NNE,33,16.0,16.0,52,0.00,CLR,,0.00,WeatherDisplay:10.37,2013-04-16 05:30:00,
2013-04-16 17:45:00,-23.9,-36.3,29.55,NE,38,16.0,16.0,51,0.00,CLR,,0.00,WeatherDisplay:10.37,2013-04-16 05:45:00,
2013-04-16 18:00:00,-24.1,-36.4,29.55,NE,37,17.0,17.0,51,0.00,CLR,,0.00,WeatherDisplay:10.37,2013-04-16 06:00:00,
2013-04-16 18:15:00,-23.7,-36.3,29.55,NNE,31,16.0,17.0,50,0.00,CLR,,0.00,WeatherDisplay:10.37,2013-04-16 06:15:00,
2013-04-16 18:30:00,-23.4,-36.8,29.55,NNE,29,15.0,16.0,48,0.00,CLR,,0.00,WeatherDisplay:10.37,2013-04-16 06:30:00,
2013-04-16 18:45:00,-23.7,-37.1,29.55,NE,35,15.0,15.0,48,0.00,CLR,,0.00,WeatherDisplay:10.37,2013-04-16 06:45:00,
2013-04-16 19:00:00,-24.1,-37.8,29.54,NE,38,15.0,15.0,47,0.00,CLR,,0.00,WeatherDisplay:10.37,2013-04-16 07:00:00,
2013-04-16 19:15:00,-24.4,-37.4,29.54,NE,38,16.0,16.0,49,0.00,CLR,,0.00,WeatherDisplay:10.37,2013-04-16 07:15:00,
2013-04-16 19:30:00,-24.5,-37.5,29.54,NNE,33,16.0,16.0,49,0.00,CLR,,0.00,WeatherDisplay:10.37,2013-04-16 07:30:00,
2013-04-16 19:45:00,-24.6,-37.2,29.53,NNE,33,17.0,17.0,50,0.00,CLR,,0.00,WeatherDisplay:10.37,2013-04-16 07:45:00,
2013-04-16 20:00:00,-24.7,-37.3,29.53,NE,36,18.0,18.0,50,0.00,CLR,,0.00,WeatherDisplay:10.37,2013-04-16 08:00:00,
2013-04-16 20:15:00,-24.8,-37.0,29.53,NE,36,18.0,18.0,51,0.00,CLR,,0.00,WeatherDisplay:10.37,2013-04-16 08:15:00,
2013-04-16 20:30:00,-24.9,-37.1,29.53,NE,35,18.0,18.0,51,0.00,CLR,,0.00,WeatherDisplay:10.37,2013-04-16 08:30:00,
2013-04-16 20:45:00,-24.9,-36.8,29.52,NE,34,18.0,18.0,52,0.00,CLR,,0.00,WeatherDisplay:10.37,2013-04-16 08:45:00,
2013-04-16 21:00:00,-24.8,-37.1,29.52,NNE,33,18.0,18.0,51,0.00,CLR,,0.00,WeatherDisplay:10.37,2013-04-16 09:00:00,
2013-04-16 21:15:00,-24.7,-36.6,29.52,NE,36,15.0,18.0,52,0.00,CLR,,0.00,WeatherDisplay:10.37,2013-04-16 09:15:00,
2013-04-16 21:30:00,-24.9,-36.8,29.51,NE,34,16.0,16.0,52,0.00,CLR,,0.00,WeatherDisplay:10.37,2013-04-16 09:30:00,
2013-04-16 21:45:00,-25.1,-37.0,29.51,NE,35,16.0,16.0,52,0.00,CLR,,0.00,WeatherDisplay:10.37,2013-04-16 09:45:00,
2013-04-16 22:00:00,-25.2,-36.8,29.50,NNE,31,16.0,16.0,53,0.00,CLR,,0.00,WeatherDisplay:10.37,2013-04-16 10:00:00,
2013-04-16 22:15:00,-25.3,-36.8,29.50,NNE,33,15.0,16.0,53,0.00,CLR,,0.00,WeatherDisplay:10.37,2013-04-16 10:15:00,
2013-04-16 22:30:00,-25.5,-36.7,29.50,NNE,32,15.0,15.0,54,0.00,CLR,,0.00,WeatherDisplay:10.37,2013-04-16 10:30:00,
2013-04-16 22:45:00,-25.7,-36.9,29.49,NNE,30,16.0,16.0,54,0.00,CLR,,0.00,WeatherDisplay:10.37,2013-04-16 10:45:00,
2013-04-16 23:00:00,-25.7,-36.9,29.49,NNE,26,16.0,16.0,54,0.00,CLR,,0.00,WeatherDisplay:10.37,2013-04-16 11:00:00,
2013-04-16 23:15:00,-26.0,-37.5,29.49,NE,36,16.0,16.0,53,0.00,CLR,,0.00,WeatherDisplay:10.37,2013-04-16 11:15:00,
2013-04-16 23:30:00,-25.8,-37.0,29.48,NE,36,15.0,16.0,54,0.00,CLR,,0.00,WeatherDisplay:10.37,2013-04-16 11:30:00,
2013-04-16 23:45:00,-26.0,-36.5,29.48,NE,36,16.0,16.0,56,0.00,CLR,,0.00,WeatherDisplay:10.37,2013-04-16 11:45:00,